Time;durP1;ratioP1;P1;durP2;ratioP2;P2;SDS_P1;SDS_P2;PMS_P1;PMS_P2;Temp;Humidity;BMP_temperature;BMP_pressure;BME280_temperature;BME280_humidity;BME280_pressure;Samples;Min_cycle;Max_cycle;Signal;HPM_P1;HPM_P2
2022/12/24 00:06:43;;;;;;;7.25;2.05;;;;;;;10.76;100.00;99833.16;20967485;28;20079;-81
2022/12/24 00:16:45;;;;;;;10.40;2.67;;;;;;;10.72;100.00;99839.38;20957178;28;20114;-81
2022/12/24 00:26:49;;;;;;;12.63;2.13;;;;;;;10.90;100.00;99852.00;20978042;28;20052;-81
2022/12/24 00:36:50;;;;;;;14.25;2.60;;;;;;;11.05;100.00;99855.97;20981492;28;20048;-81
2022/12/24 00:46:51;;;;;;;8.98;2.65;;;;;;;11.01;100.00;99881.38;20979969;28;20049;-82
2022/12/24 00:56:52;;;;;;;12.70;1.90;;;;;;;11.04;100.00;99899.66;20964569;28;20107;-81
2022/12/24 01:06:54;;;;;;;14.38;2.58;;;;;;;11.11;100.00;99918.69;20984789;28;20049;-81
2022/12/24 01:16:56;;;;;;;13.85;2.78;;;;;;;10.97;100.00;99913.81;21002487;28;20052;-81
2022/12/24 01:26:58;;;;;;;11.43;2.72;;;;;;;10.89;100.00;99934.09;20979724;28;20060;-81
2022/12/24 01:36:59;;;;;;;15.00;2.85;;;;;;;10.68;100.00;99956.44;20994897;28;20056;-81
2022/12/24 01:47:01;;;;;;;17.70;2.78;;;;;;;10.70;100.00;99991.28;20961602;28;20059;-81
2022/12/24 01:57:02;;;;;;;11.05;2.17;;;;;;;10.77;100.00;99986.75;20967497;28;20048;-81
2022/12/24 02:07:04;;;;;;;13.60;2.15;;;;;;;10.65;100.00;99977.44;20971933;28;20055;-80
2022/12/24 02:17:05;;;;;;;10.07;2.33;;;;;;;10.49;100.00;99995.25;20978609;28;20080;-81
2022/12/24 02:27:06;;;;;;;14.43;2.80;;;;;;;10.51;100.00;99993.44;20970292;28;20082;-81
2022/12/24 02:37:07;;;;;;;15.63;2.83;;;;;;;10.44;100.00;99997.13;20986673;28;20386;-81
2022/12/24 02:47:09;;;;;;;13.40;2.60;;;;;;;10.31;100.00;100018.34;20979204;28;20056;-81
2022/12/24 02:57:10;;;;;;;15.55;2.38;;;;;;;10.34;100.00;100016.50;20944980;28;20048;-80
2022/12/24 03:07:11;;;;;;;20.33;3.63;;;;;;;10.33;100.00;100030.47;20946563;28;20103;-81
2022/12/24 03:17:13;;;;;;;22.25;3.38;;;;;;;10.37;100.00;100012.97;20976366;28;20074;-81
2022/12/24 03:27:14;;;;;;;16.05;3.38;;;;;;;10.41;100.00;100022.47;20976707;28;20053;-80
2022/12/24 03:37:15;;;;;;;20.42;3.45;;;;;;;10.49;100.00;100013.59;20966152;28;20053;-80
2022/12/24 03:47:16;;;;;;;16.60;3.15;;;;;;;10.59;100.00;100034.28;20961755;28;20105;-80
2022/12/24 03:57:18;;;;;;;21.08;3.88;;;;;;;10.46;100.00;100039.81;20978303;28;20115;-80
2022/12/24 04:07:19;;;;;;;15.27;3.30;;;;;;;10.46;100.00;100045.03;20960433;28;20484;-80
2022/12/24 04:17:20;;;;;;;21.58;4.18;;;;;;;10.38;100.00;100046.94;20973771;28;20126;-80
2022/12/24 04:27:22;;;;;;;21.85;4.35;;;;;;;10.38;100.00;100057.41;20958910;28;20074;-80
2022/12/24 04:37:30;;;;;;;37.28;4.97;;;;;;;10.45;100.00;100064.25;20967796;28;20132;-81
2022/12/24 04:47:31;;;;;;;18.23;3.72;;;;;;;10.48;100.00;100082.50;20976230;28;20049;-80
2022/12/24 04:57:34;;;;;;;29.55;3.95;;;;;;;10.41;100.00;100088.78;20970540;28;20049;-81
2022/12/24 05:07:35;;;;;;;21.95;3.65;;;;;;;10.53;100.00;100075.41;20985202;28;20132;-80
2022/12/24 05:17:37;;;;;;;18.05;3.55;;;;;;;10.52;100.00;100072.84;20978117;28;20107;-81
2022/12/24 05:27:38;;;;;;;22.80;3.97;;;;;;;10.45;100.00;100085.22;20941580;28;20058;-80
2022/12/24 05:37:39;;;;;;;20.35;3.58;;;;;;;10.34;100.00;100091.53;20923914;28;20059;-80
2022/12/24 05:47:40;;;;;;;29.48;4.47;;;;;;;10.38;100.00;100104.53;20943198;28;20053;-80
2022/12/24 05:57:43;;;;;;;25.20;3.85;;;;;;;10.35;100.00;100120.31;21002475;28;20059;-80
2022/12/24 06:07:45;;;;;;;22.45;4.47;;;;;;;10.17;100.00;100115.38;20987739;28;20044;-79
2022/12/24 06:17:46;;;;;;;23.75;4.00;;;;;;;10.26;100.00;100141.41;20997230;28;20121;-80
2022/12/24 06:27:48;;;;;;;19.38;3.80;;;;;;;10.27;100.00;100164.06;20998511;28;20479;-79
2022/12/24 06:37:49;;;;;;;19.50;3.58;;;;;;;10.30;100.00;100179.72;20922491;28;20045;-79
2022/12/24 06:47:50;;;;;;;17.95;3.53;;;;;;;10.28;100.00;100191.94;20950700;28;20056;-80
2022/12/24 06:57:51;;;;;;;19.75;3.55;;;;;;;10.24;100.00;100204.22;20994886;28;20048;-80
2022/12/24 07:07:53;;;;;;;20.17;3.53;;;;;;;10.38;100.00;100217.06;20992012;28;20497;-80
2022/12/24 07:17:54;;;;;;;20.85;3.20;;;;;;;10.13;100.00;100220.97;21001490;28;20110;-80
2022/12/24 07:27:55;;;;;;;20.55;3.40;;;;;;;10.17;100.00;100214.81;21001892;28;20074;-79
2022/12/24 07:37:57;;;;;;;20.55;3.97;;;;;;;10.17;100.00;100212.19;20996613;28;20493;-80
2022/12/24 07:47:58;;;;;;;21.88;3.60;;;;;;;10.08;100.00;100226.28;20996940;28;20048;-79
2022/12/24 07:57:59;;;;;;;23.92;3.97;;;;;;;10.08;100.00;100233.25;21003686;28;20048;-80
2022/12/24 08:08:00;;;;;;;19.27;4.45;;;;;;;10.05;100.00;100239.41;20993646;28;20087;-80
2022/12/24 08:18:03;;;;;;;23.38;5.20;;;;;;;10.17;100.00;100256.66;20997172;28;20060;-81
2022/12/24 08:28:04;;;;;;;19.73;4.53;;;;;;;10.17;100.00;100259.28;20975430;28;20441;-80
2022/12/24 08:38:05;;;;;;;20.23;3.55;;;;;;;10.14;100.00;100259.31;20964813;28;20110;-79
2022/12/24 08:48:07;;;;;;;23.60;4.70;;;;;;;10.27;100.00;100268.72;21002916;28;20049;-80
2022/12/24 08:58:08;;;;;;;22.55;4.28;;;;;;;10.39;100.00;100278.97;20922858;28;20091;-81
2022/12/24 09:08:09;;;;;;;23.20;3.75;;;;;;;10.46;100.00;100280.63;20937230;28;20045;-80
2022/12/24 09:18:11;;;;;;;23.05;4.22;;;;;;;10.62;100.00;100307.38;20996873;28;20103;-80
2022/12/24 09:28:12;;;;;;;28.05;5.65;;;;;;;10.69;100.00;100318.63;20956594;28;20139;-80
2022/12/24 09:38:13;;;;;;;22.38;4.95;;;;;;;10.71;100.00;100332.56;20977504;28;20059;-80
2022/12/24 09:48:14;;;;;;;20.35;4.50;;;;;;;10.76;100.00;100341.19;21004852;28;20068;-80
2022/12/24 09:58:16;;;;;;;19.60;5.15;;;;;;;10.68;100.00;100349.19;21003335;28;20468;-80
2022/12/24 10:08:17;;;;;;;23.67;5.13;;;;;;;10.74;100.00;100361.31;21000860;28;20082;-81
2022/12/24 10:18:19;;;;;;;23.33;4.80;;;;;;;10.79;100.00;100367.34;20997312;28;20065;-81
2022/12/24 10:28:20;;;;;;;26.75;5.65;;;;;;;10.65;100.00;100366.72;20976913;28;20556;-81
2022/12/24 10:38:21;;;;;;;25.13;4.20;;;;;;;10.61;100.00;100372.88;20916623;28;20682;-81
2022/12/24 10:48:23;;;;;;;27.83;4.28;;;;;;;10.63;100.00;100365.84;20919441;28;20061;-81
2022/12/24 10:58:24;;;;;;;20.83;4.60;;;;;;;10.86;100.00;100357.59;20933668;28;20126;-81
2022/12/24 11:08:25;;;;;;;26.05;4.38;;;;;;;11.15;100.00;100344.84;20994841;28;20057;-81
2022/12/24 11:18:26;;;;;;;23.60;4.22;;;;;;;11.35;100.00;100352.31;20961266;28;20067;-81
2022/12/24 11:28:28;;;;;;;34.13;4.40;;;;;;;11.19;100.00;100362.25;20989332;28;20083;-80
2022/12/24 11:38:29;;;;;;;19.45;3.72;;;;;;;11.35;100.00;100352.31;20989864;28;20045;-80
2022/12/24 11:48:30;;;;;;;22.88;4.55;;;;;;;11.28;100.00;100335.84;20950054;28;20471;-80
2022/12/24 11:58:31;;;;;;;26.23;5.07;;;;;;;11.55;100.00;100330.97;20943663;28;20061;-80
2022/12/24 12:08:33;;;;;;;18.85;3.75;;;;;;;11.73;100.00;100333.16;20976664;28;20497;-80
2022/12/24 12:18:34;;;;;;;19.83;4.05;;;;;;;11.92;100.00;100332.81;20976708;28;20103;-80
2022/12/24 12:28:35;;;;;;;18.08;4.35;;;;;;;11.76;100.00;100343.59;20952799;28;20137;-80
2022/12/24 12:38:37;;;;;;;22.27;4.30;;;;;;;11.59;100.00;100336.97;20954166;28;20049;-80
2022/12/24 12:48:38;;;;;;;18.92;4.05;;;;;;;11.69;100.00;100336.78;20972676;28;20544;-80
2022/12/24 12:58:40;;;;;;;20.88;4.15;;;;;;;11.74;100.00;100348.03;20978565;28;20044;-80
2022/12/24 13:08:41;;;;;;;27.48;4.72;;;;;;;11.82;100.00;100354.00;20939542;28;20049;-80
2022/12/24 13:18:42;;;;;;;16.52;3.42;;;;;;;11.90;100.00;100356.47;20970413;28;20085;-81
2022/12/24 13:28:44;;;;;;;21.65;3.50;;;;;;;12.00;100.00;100341.38;20962637;28;20057;-79
2022/12/24 13:38:45;;;;;;;17.23;3.67;;;;;;;11.87;100.00;100345.16;20991205;28;20052;-78
2022/12/24 13:48:47;;;;;;;18.73;4.03;;;;;;;11.59;100.00;100326.50;20967304;28;20055;-79
2022/12/24 13:58:48;;;;;;;24.33;3.88;;;;;;;11.50;100.00;100341.53;20975767;28;20075;-79
2022/12/24 14:08:49;;;;;;;18.23;3.88;;;;;;;11.38;100.00;100338.28;20997622;28;20114;-80
2022/12/24 14:19:01;;;;;;;17.02;3.55;;;;;;;11.25;100.00;100320.19;20988226;28;20048;-80
2022/12/24 14:29:02;;;;;;;19.10;4.72;;;;;;;11.14;100.00;100337.00;20949885;28;20053;-80
2022/12/24 14:39:04;;;;;;;21.17;5.53;;;;;;;11.05;100.00;100332.81;20994411;28;20055;-80
2022/12/24 14:49:05;;;;;;;20.13;4.25;;;;;;;11.14;100.00;100348.34;20963098;28;20113;-80
2022/12/24 14:59:06;;;;;;;23.95;5.28;;;;;;;11.27;100.00;100344.63;20973294;28;20084;-80
2022/12/24 15:09:08;;;;;;;16.75;4.15;;;;;;;11.18;100.00;100346.56;20964432;28;20048;-80
2022/12/24 15:19:09;;;;;;;17.05;3.95;;;;;;;11.08;100.00;100355.47;20963312;28;20111;-80
2022/12/24 15:29:10;;;;;;;28.42;9.63;;;;;;;11.00;100.00;100356.47;20933387;28;20055;-80
2022/12/24 15:39:11;;;;;;;51.15;18.42;;;;;;;10.81;100.00;100381.25;20938181;28;20045;-80
2022/12/24 15:49:13;;;;;;;25.77;9.07;;;;;;;10.65;100.00;100390.28;20925415;28;20053;-80
2022/12/24 15:59:14;;;;;;;30.65;10.70;;;;;;;10.48;100.00;100403.63;20941346;28;20551;-80
2022/12/24 16:09:16;;;;;;;30.33;10.73;;;;;;;10.38;100.00;100413.34;20953916;28;20048;-80
2022/12/24 16:19:17;;;;;;;28.10;7.07;;;;;;;10.26;100.00;100409.19;20977506;28;20048;-80
2022/12/24 16:29:19;;;;;;;19.67;4.93;;;;;;;10.16;100.00;100415.41;20981595;28;20135;-80
2022/12/24 16:39:24;;;;;;;17.25;3.72;;;;;;;9.96;100.00;100431.34;20983969;28;20130;-80
2022/12/24 16:49:25;;;;;;;13.87;3.47;;;;;;;9.95;100.00;100428.75;20966622;28;20102;-80
2022/12/24 16:59:26;;;;;;;13.95;4.47;;;;;;;9.88;100.00;100430.59;20955851;28;20052;-81
2022/12/24 17:09:27;;;;;;;14.77;4.82;;;;;;;9.75;100.00;100447.31;20989877;28;20501;-80
2022/12/24 17:19:29;;;;;;;22.08;5.13;;;;;;;9.70;100.00;100442.13;21008837;28;20049;-80
2022/12/24 17:29:30;;;;;;;13.88;3.67;;;;;;;9.64;100.00;100465.72;20979428;28;20106;-80
2022/12/24 17:39:31;;;;;;;16.77;3.63;;;;;;;9.65;100.00;100462.22;20966269;28;20078;-81
2022/12/24 17:49:32;;;;;;;20.98;7.82;;;;;;;9.64;100.00;100454.41;21014370;28;20112;-81
2022/12/24 17:59:34;;;;;;;21.30;7.82;;;;;;;9.58;100.00;100439.66;20988382;28;20107;-80
2022/12/24 18:09:35;;;;;;;23.05;9.25;;;;;;;9.51;100.00;100449.31;20981238;28;20098;-80
2022/12/24 18:19:36;;;;;;;22.25;9.65;;;;;;;9.52;100.00;100451.03;20964014;28;20106;-80
2022/12/24 18:29:40;;;;;;;24.67;10.02;;;;;;;9.48;100.00;100449.31;20928924;28;20059;-80
2022/12/24 18:39:41;;;;;;;23.50;8.33;;;;;;;9.51;100.00;100457.13;20988364;28;20047;-80
2022/12/24 18:49:42;;;;;;;20.95;7.40;;;;;;;9.56;100.00;100445.78;20986685;28;20060;-80
2022/12/24 18:59:44;;;;;;;19.75;6.57;;;;;;;9.57;100.00;100444.88;20916093;28;20049;-81
2022/12/24 19:09:47;;;;;;;15.80;6.57;;;;;;;9.64;100.00;100452.66;20941874;28;20052;-80
2022/12/24 19:19:48;;;;;;;14.20;6.63;;;;;;;9.70;100.00;100465.66;20981533;28;20053;-80
2022/12/24 19:29:49;;;;;;;15.32;5.97;;;;;;;9.72;100.00;100476.09;20968937;28;20080;-80
2022/12/24 19:39:51;;;;;;;12.98;4.18;;;;;;;9.79;100.00;100487.34;20989302;28;20052;-80
2022/12/24 19:49:52;;;;;;;12.05;3.90;;;;;;;9.80;100.00;100497.78;20988932;28;20064;-80
2022/12/24 19:59:53;;;;;;;11.82;3.75;;;;;;;9.92;100.00;100496.81;20938311;28;20056;-81
2022/12/24 20:09:55;;;;;;;12.75;3.47;;;;;;;9.94;100.00;100490.66;20956891;28;20045;-79
2022/12/24 20:19:56;;;;;;;9.73;3.60;;;;;;;9.93;100.00;100480.22;20978774;28;20483;-81
2022/12/24 20:29:58;;;;;;;12.20;4.03;;;;;;;9.89;100.00;100497.69;20998631;28;20425;-81
2022/12/24 20:39:59;;;;;;;7.90;3.40;;;;;;;9.90;100.00;100509.88;21000662;28;20053;-80
2022/12/24 20:50:00;;;;;;;9.48;3.17;;;;;;;9.97;100.00;100529.88;21015271;28;20052;-80
2022/12/24 21:00:02;;;;;;;11.65;3.88;;;;;;;10.02;100.00;100546.38;21003700;28;20110;-79
2022/12/24 21:10:03;;;;;;;11.45;3.10;;;;;;;9.97;100.00;100548.19;20992869;28;20057;-79
2022/12/24 21:20:04;;;;;;;10.00;3.35;;;;;;;9.93;100.00;100546.47;21018224;28;20056;-79
2022/12/24 21:30:07;;;;;;;7.95;3.40;;;;;;;9.91;100.00;100519.44;20990823;28;20087;-79
2022/12/24 21:40:08;;;;;;;6.82;2.60;;;;;;;9.80;100.00;100487.34;20994385;28;20094;-79
2022/12/24 22:00:32;;;;;;;9.68;2.85;;;;;;;9.70;100.00;100481.34;20966511;28;20562;-79
2022/12/24 22:20:54;;;;;;;7.03;2.53;;;;;;;9.55;100.00;100470.19;20991097;28;20056;-79
2022/12/24 22:30:56;;;;;;;8.18;2.35;;;;;;;9.53;100.00;100485.88;20971996;28;20505;-80
2022/12/24 22:40:57;;;;;;;8.70;2.55;;;;;;;9.38;100.00;100479.03;21056735;28;20052;-79
2022/12/24 22:50:58;;;;;;;6.45;2.47;;;;;;;9.36;100.00;100496.50;21038799;28;20054;-79
2022/12/24 23:00:59;;;;;;;5.90;2.20;;;;;;;9.46;100.00;100494.66;21007488;28;20617;-80
2022/12/24 23:11:01;;;;;;;7.50;2.35;;;;;;;9.40;100.00;100487.75;21020082;28;20190;-79
2022/12/24 23:21:02;;;;;;;7.57;2.13;;;;;;;9.34;100.00;100489.53;21020552;28;20484;-79
2022/12/24 23:31:03;;;;;;;9.43;2.70;;;;;;;9.28;100.00;100482.63;21043583;22;20092;-73
2022/12/24 23:41:05;;;;;;;7.55;2.33;;;;;;;9.30;100.00;100473.06;21017246;23;20486;-75
2022/12/24 23:51:06;;;;;;;7.85;2.42;;;;;;;9.30;100.00;100486.13;20941751;28;20098;-75
